createdAt,value
2019-01-18T00:02:34.252Z,96511.33
2019-01-18T00:07:51.630Z,96517.97
2019-01-18T00:13:10.117Z,96528.74
2019-01-18T00:18:27.612Z,96529.88
2019-01-18T00:23:45.144Z,96545.09
2019-01-18T00:29:02.805Z,96549.79
2019-01-18T00:34:20.703Z,96557.49
2019-01-18T00:39:37.925Z,96557.02
2019-01-18T00:44:55.532Z,96550.84
2019-01-18T00:50:14.183Z,96546.81
2019-01-18T00:55:32.128Z,96543.80
2019-01-18T01:00:50.019Z,96547.34
2019-01-18T01:06:07.313Z,96557.05
2019-01-18T01:11:24.919Z,96569.19
2019-01-18T01:16:42.173Z,96578.14
2019-01-18T01:21:59.722Z,96588.31
2019-01-18T01:27:16.989Z,96602.07
2019-01-18T01:32:34.619Z,96640.11
2019-01-18T01:37:52.240Z,96665.37
2019-01-18T01:43:09.354Z,96689.18
2019-01-18T01:48:27.016Z,96666.27
2019-01-18T01:53:44.773Z,96641.78
2019-01-18T01:59:02.111Z,96653.04
2019-01-18T02:04:19.720Z,96645.77
2019-01-18T02:09:37.678Z,96641.59
2019-01-18T02:14:55.484Z,96646.09
2019-01-18T02:20:14.409Z,96647.13
2019-01-18T02:25:32.455Z,96648.62
2019-01-18T02:30:50.739Z,96630.30
2019-01-18T02:36:08.119Z,96644.53
2019-01-18T02:41:25.214Z,96652.34
2019-01-18T02:46:42.469Z,96645.60
2019-01-18T02:52:00.019Z,96651.52
2019-01-18T02:57:17.728Z,96654.60
2019-01-18T03:02:34.878Z,96656.33
2019-01-18T03:07:52.352Z,96660.71
2019-01-18T03:13:10.082Z,96659.38
2019-01-18T03:18:27.974Z,96659.25
2019-01-18T03:23:45.985Z,96652.77
2019-01-18T03:29:03.241Z,96647.26
2019-01-18T03:34:20.446Z,96632.64
2019-01-18T03:39:38.089Z,96632.72
2019-01-18T03:44:56.076Z,96638.83
2019-01-18T03:50:14.912Z,96640.52
2019-01-18T03:55:32.484Z,96640.96
2019-01-18T04:00:49.903Z,96643.02
2019-01-18T04:06:07.706Z,96643.15
2019-01-18T04:11:25.496Z,96642.98
2019-01-18T04:16:44.274Z,96640.77
2019-01-18T04:22:01.657Z,96642.94
2019-01-18T04:27:19.286Z,96655.63
2019-01-18T04:32:36.733Z,96655.96
2019-01-18T04:37:54.728Z,96652.48
2019-01-18T04:43:12.847Z,96661.27
2019-01-18T04:48:30.626Z,96665.20
2019-01-18T04:53:47.935Z,96669.05
2019-01-18T04:59:05.714Z,96688.84
2019-01-18T05:04:24.179Z,96687.45
2019-01-18T05:09:42.381Z,96713.14
2019-01-18T05:15:00.166Z,96708.71
2019-01-18T05:20:17.697Z,96716.73
2019-01-18T05:25:35.897Z,96724.42
2019-01-18T05:30:54.279Z,96740.55
2019-01-18T05:36:11.622Z,96747.08
2019-01-18T05:41:28.842Z,96752.65
2019-01-18T05:46:46.204Z,96776.61
2019-01-18T05:52:03.915Z,96774.25
2019-01-18T05:57:21.735Z,96797.47
2019-01-18T06:02:39.491Z,96803.10
2019-01-18T06:07:56.870Z,96805.41
2019-01-18T06:13:16.191Z,96824.41
2019-01-18T06:18:33.318Z,96838.56
2019-01-18T06:23:50.475Z,96835.40
2019-01-18T06:29:08.093Z,96862.09
2019-01-18T06:34:26.074Z,96872.89
2019-01-18T06:39:45.627Z,96879.36
2019-01-18T06:45:04.403Z,96883.23
2019-01-18T06:50:22.273Z,96908.38
2019-01-18T06:55:39.957Z,96917.20
2019-01-18T07:00:58.654Z,96930.58
2019-01-18T07:06:16.497Z,96938.00
2019-01-18T07:11:34.768Z,96941.14
2019-01-18T07:16:52.864Z,96955.23
2019-01-18T07:22:10.754Z,96968.98
2019-01-18T07:27:28.454Z,96974.52
2019-01-18T07:32:46.604Z,96992.37
2019-01-18T07:38:04.086Z,96996.60
2019-01-18T07:43:22.493Z,97017.65
2019-01-18T07:48:40.501Z,97019.80
2019-01-18T07:53:59.671Z,97045.76
2019-01-18T07:59:20.994Z,97066.31
2019-01-18T08:04:41.797Z,97069.67
2019-01-18T08:10:01.935Z,97093.55
2019-01-18T08:15:23.022Z,97114.31
2019-01-18T08:20:40.936Z,97114.02
2019-01-18T08:25:58.479Z,97121.94
2019-01-18T08:31:15.776Z,97127.72
2019-01-18T08:36:33.700Z,97124.12
2019-01-18T08:41:52.004Z,97126.81
2019-01-18T08:47:10.643Z,97131.19
2019-01-18T08:52:28.100Z,97135.19
2019-01-18T08:57:45.950Z,97155.22
2019-01-18T09:03:05.368Z,97151.52
2019-01-18T09:08:22.958Z,97169.43
2019-01-18T09:13:42.827Z,97182.83
2019-01-18T09:19:00.127Z,97181.45
2019-01-18T09:24:17.993Z,97192.02
2019-01-18T09:29:35.830Z,97198.81
2019-01-18T09:34:54.936Z,97206.23
2019-01-18T09:40:17.018Z,97214.53
2019-01-18T09:45:34.694Z,97221.39
2019-01-18T09:50:52.622Z,97215.17
2019-01-18T09:56:10.339Z,97212.80
2019-01-18T10:01:28.200Z,97229.98
2019-01-18T10:06:45.691Z,97230.41
2019-01-18T10:17:10.222Z,97236.02
2019-01-18T10:22:27.680Z,97222.64
2019-01-18T10:27:46.099Z,97211.45
2019-01-18T10:33:04.360Z,97224.61
2019-01-18T10:38:22.531Z,97225.19
2019-01-18T10:43:41.171Z,97236.34
2019-01-18T10:48:58.668Z,97234.02
2019-01-18T10:54:16.628Z,97234.76
2019-01-18T10:59:34.083Z,97237.34
2019-01-18T11:04:52.456Z,97240.99
2019-01-18T11:10:11.911Z,97235.03
2019-01-18T11:15:36.262Z,97237.95
2019-01-18T11:20:56.933Z,97240.36
2019-01-18T11:26:15.661Z,97232.73
2019-01-18T11:31:33.217Z,97237.91
2019-01-18T11:36:50.930Z,97244.64
2019-01-18T11:42:08.541Z,97234.25
2019-01-18T11:47:25.934Z,97227.83
2019-01-18T11:52:43.980Z,97232.84
2019-01-18T11:58:02.585Z,97224.73
2019-01-18T12:03:19.800Z,97232.22
2019-01-18T12:08:36.890Z,97240.88
2019-01-18T12:13:55.097Z,97257.36
2019-01-18T12:19:11.975Z,97252.75
2019-01-18T12:24:30.127Z,97256.28
2019-01-18T12:29:49.607Z,97273.24
2019-01-18T12:35:06.983Z,97277.22
2019-01-18T12:40:24.136Z,97273.47
2019-01-18T12:45:43.104Z,97279.13
2019-01-18T12:51:00.246Z,97277.34
2019-01-18T12:56:22.870Z,97272.64
2019-01-18T13:01:40.148Z,97281.25
2019-01-18T13:06:58.086Z,97277.61
2019-01-18T13:12:15.547Z,97285.02
2019-01-18T13:17:34.051Z,97287.25
2019-01-18T13:22:51.688Z,97293.20
2019-01-18T13:28:09.183Z,97296.88
2019-01-18T13:33:26.930Z,97300.27
2019-01-18T13:38:44.583Z,97309.67
2019-01-18T13:44:02.118Z,97321.56
2019-01-18T13:49:20.034Z,97315.21
2019-01-18T13:54:38.844Z,97309.56
2019-01-18T13:59:57.665Z,97315.92
2019-01-18T14:05:14.961Z,97312.77
2019-01-18T14:10:33.055Z,97305.59
2019-01-18T14:15:50.801Z,97315.91
2019-01-18T14:21:08.227Z,97315.91
2019-01-18T14:26:25.630Z,97324.17
2019-01-18T14:31:44.018Z,97325.89
2019-01-18T14:37:01.493Z,97329.45
2019-01-18T14:42:20.639Z,97332.22
2019-01-18T14:47:37.930Z,97337.67
2019-01-18T14:52:55.269Z,97342.83
2019-01-18T14:58:13.473Z,97349.63
2019-01-18T15:03:30.598Z,97351.98
2019-01-18T15:08:47.716Z,97359.70
2019-01-18T15:14:05.860Z,97370.56
2019-01-18T15:19:23.264Z,97365.08
2019-01-18T15:24:41.258Z,97374.27
2019-01-18T15:29:59.224Z,97370.78
2019-01-18T15:35:18.014Z,97373.69
2019-01-18T15:40:36.817Z,97387.48
2019-01-18T15:45:55.026Z,97393.85
2019-01-18T15:51:12.647Z,97388.55
2019-01-18T15:56:31.321Z,97391.77
2019-01-18T16:01:50.902Z,97391.73
2019-01-18T16:07:08.523Z,97394.98
2019-01-18T16:12:26.406Z,97403.11
2019-01-18T16:17:44.553Z,97407.08
2019-01-18T16:23:03.126Z,97410.80
2019-01-18T16:28:20.317Z,97411.44
2019-01-18T16:33:38.011Z,97413.66
2019-01-18T16:38:55.501Z,97410.61
2019-01-18T16:44:12.891Z,97413.00
2019-01-18T16:49:32.567Z,97417.14
2019-01-18T16:54:50.313Z,97423.23
2019-01-18T17:00:12.343Z,97428.18
2019-01-18T17:05:30.166Z,97434.00
2019-01-18T17:10:47.655Z,97434.00
2019-01-18T17:16:05.458Z,97443.17
2019-01-18T17:21:22.684Z,97448.46
2019-01-18T17:26:39.981Z,97465.06
2019-01-18T17:31:58.697Z,97468.02
2019-01-18T17:37:36.277Z,97479.56
2019-01-18T17:42:59.812Z,97485.78
2019-01-18T17:48:22.507Z,97496.41
2019-01-18T17:54:15.043Z,97498.38
2019-01-18T17:59:48.576Z,97501.12
2019-01-18T18:05:19.954Z,97506.94
2019-01-18T18:10:55.687Z,97523.87
2019-01-18T18:16:48.467Z,97521.22
2019-01-18T18:22:40.846Z,97524.78
2019-01-18T18:28:10.973Z,97525.98
2019-01-18T18:34:03.034Z,97522.52
2019-01-18T18:39:30.033Z,97525.54
2019-01-18T18:45:06.704Z,97535.31
2019-01-18T18:50:42.444Z,97524.86
2019-01-18T18:56:27.877Z,97527.28
2019-01-18T19:02:14.286Z,97512.19
2019-01-18T19:07:50.161Z,97521.95
2019-01-18T19:13:36.309Z,97524.29
2019-01-18T19:19:11.006Z,97526.78
2019-01-18T19:24:47.803Z,97519.23
2019-01-18T19:30:27.515Z,97525.28
2019-01-18T19:36:07.673Z,97533.92
2019-01-18T19:41:53.854Z,97536.48
2019-01-18T19:47:24.047Z,97529.30
2019-01-18T19:53:09.825Z,97529.38
2019-01-18T19:58:46.543Z,97528.76
2019-01-18T20:04:27.082Z,97531.20
2019-01-18T20:09:47.835Z,97540.98
2019-01-18T20:15:16.575Z,97541.48
2019-01-18T20:20:41.874Z,97548.34
2019-01-18T20:26:13.374Z,97557.16
2019-01-18T20:31:39.292Z,97556.02
2019-01-18T20:37:04.097Z,97564.48
2019-01-18T20:42:37.328Z,97572.25
2019-01-18T20:48:07.605Z,97569.46
2019-01-18T20:53:33.887Z,97571.38
2019-01-18T20:59:13.771Z,97569.48
2019-01-18T21:04:56.705Z,97564.06
2019-01-18T21:10:24.985Z,97554.32
2019-01-18T21:16:01.555Z,97564.44
2019-01-18T21:21:47.374Z,97573.77
2019-01-18T21:27:30.152Z,97573.81
2019-01-18T21:33:07.355Z,97563.19
2019-01-18T21:38:44.694Z,97570.66
2019-01-18T21:44:31.350Z,97578.87
2019-01-18T21:50:02.123Z,97576.81
2019-01-18T21:55:41.737Z,97570.98
2019-01-18T22:01:18.064Z,97574.09
2019-01-18T22:07:10.421Z,97575.22
2019-01-18T22:12:50.187Z,97575.76
2019-01-18T22:18:20.017Z,97583.48
2019-01-18T22:23:56.235Z,97582.08
2019-01-18T22:29:29.538Z,97576.39
2019-01-18T22:35:09.495Z,97580.17
2019-01-18T22:40:53.034Z,97570.02
2019-01-18T22:46:29.129Z,97571.81
2019-01-18T22:52:04.366Z,97571.02
2019-01-18T22:57:33.773Z,97569.80
2019-01-18T23:02:54.281Z,97563.58
2019-01-18T23:08:37.315Z,97569.36
2019-01-18T23:14:17.680Z,97567.87
2019-01-18T23:19:57.934Z,97562.16
2019-01-18T23:25:20.877Z,97559.80
2019-01-18T23:30:41.906Z,97551.88
2019-01-18T23:36:06.207Z,97542.98
2019-01-18T23:41:31.425Z,97547.39
2019-01-18T23:47:17.267Z,97540.19
2019-01-18T23:52:54.269Z,97536.15
2019-01-18T23:58:40.178Z,97533.30
